LIEE Airport Information

Runway Information
Runway 14 Length 9196 ft width 148 ft
Elevation 9 ft Threshold 0 ft Heading 138
Runway 32 Length 9196 ft Width 148 ft
Elevation 4 ft Threshold 0 ft Heading 318
Airport Frequencies
Type APP Name CAGLIARI A Frequency 118.75 MHZ
Type GND Name Elmas GND Frequency 125.425 MHZ
Type MISC Name SAR Frequency 123.1 MHZ
Type TWR Name TWR Frequency 120.6 MHZ
Airport Navaids
Type VOR-DME Name Cagliari Frequency 113400 KHZ
Type NDB Name Cagliari Frequency 371 KHZ
Airport Weather Information & NOTAM
ADDS - METARS form results

(0315 UTC 03 December 2020)
Data provider http://aviationweather.gov/metar/data/
 
METAR text: LIEE 030250Z 01004KT CAVOK 07/07 Q1008
Conditions at: LIEE (CAGLIARI/ELMAS(A, IT) observed 0250 UTC 03 December 2020
Temperature: 7.0°C (45°F)
Dewpoint: 7.0°C (45°F) [RH = 100%]
Pressure (altimeter): 29.76 inches Hg (1008.0 mb)
Winds: from the N (10 degrees) at 5 MPH (4 knots; 2.1 m/s)
Visibility: 6 or more miles (10+ km)
Ceiling: ceiling and visibility are OK
Clouds: unknown
Weather: no significant weather observed at this time

METAR text: LIEE 030220Z 04005KT CAVOK 08/08 Q1008
Conditions at: LIEE (CAGLIARI/ELMAS(A, IT) observed 0220 UTC 03 December 2020
Temperature: 8.0°C (46°F)
Dewpoint: 8.0°C (46°F) [RH = 100%]
Pressure (altimeter): 29.76 inches Hg (1008.0 mb)
Winds: from the NE (40 degrees) at 6 MPH (5 knots; 2.6 m/s)
Visibility: 6 or more miles (10+ km)
Ceiling: ceiling and visibility are OK
Clouds: unknown
Weather: no significant weather observed at this time

Forecast for: LIEE (CAGLIARI/ELMAS(A, IT)
Text: TAF LIEE 022300Z 0300/0324 34010KT 9999 SCT040
Forecast period: 0000 UTC 03 December 2020 to 0000 UTC 04 December 2020
Forecast type: FROM: standard forecast or significant change
Winds: from the NNW (340 degrees) at 12 MPH (10 knots; 5.1 m/s)
Visibility: 6 or more miles (10+ km)
Ceiling: at least 12,000 feet AGL
Clouds: scattered clouds at 4000 feet AGL
Weather: no significant weather forecast for this period
Text: TEMPO 0310/0315 34018G28KT
Forecast period: 1000 to 1500 UTC 03 December 2020
Forecast type: TEMPORARY: The following changes expected for less than half the time period
Winds: from the NNW (340 degrees) at 21 MPH (18 knots; 9.3 m/s)
gusting to 32 MPH (28 knots; 14.4 m/s)
Visibility: missing
Ceiling: unknown
Clouds: missing
Weather: no significant weather forecast for this period